Zelenodolsk — UYXW — position and weather

sailwx.info

Track history (hours):
 
Tides and Currents Weather Stations Pressure Air Temp Water Temp Dewpoint Dewpoint Depression Visibility Wind Speed Wind Dir Waves Ship Positions

Zelenodolsk

Last reported at 2017-Oct-22 13:01 UTC. Time now 2017-Oct-22 13:26 UTC.
Position N 45°30' E 019°06'.

Length 32 m; draft 1.8 m.

Type: Ship. MMSI: 272029800.

Date/timePositionNaut miles runAvg speedWind from/ knotsBaromVisibWave heightAir tempDewpointWater temp
2017-Oct-22 13:01N 45°30' E 019°06'2 4.3
2017-Oct-22 12:31N 45°29' E 019°03'2 4.4
2017-Oct-22 12:01N 45°30' E 019°00'1 1.6
2017-Oct-22 11:31N 45°29' E 018°60'0 0.3
2017-Oct-22 11:00N 45°29' E 018°60'2 5.0
2017-Oct-22 10:31N 45°29' E 019°03'3 5.7
2017-Oct-22 10:01N 45°31' E 019°06'3 6.4
2017-Oct-22 09:31N 45°33' E 019°02'3 5.2
2017-Oct-22 09:01N 45°32' E 018°58'3 6.5
2017-Oct-22 08:31N 45°33' E 018°54'3 5.6
2017-Oct-22 08:01N 45°36' E 018°54'3 5.9
2017-Oct-22 07:31N 45°39' E 018°57'2 4.6
2017-Oct-22 07:01N 45°41' E 018°56'1 1.1
2017-Oct-22 06:31N 45°42' E 018°55'0 0.3
2017-Oct-22 06:01N 45°42' E 018°55'0 0.2
2017-Oct-22 05:31N 45°42' E 018°55'2 4.9
2017-Oct-22 05:01N 45°44' E 018°54'3 6.3
2017-Oct-22 04:31N 45°47' E 018°53'3 5.3
2017-Oct-22 04:00N 45°49' E 018°51'1 1.4
2017-Oct-22 03:30N 45°50' E 018°51'0 0.0
2017-Oct-22 02:59N 45°50' E 018°51'0 0.0
2017-Oct-22 01:50N 45°50' E 018°51'0 0.0
2017-Oct-22 01:20N 45°50' E 018°51'0 0.0
2017-Oct-22 00:59N 45°50' E 018°51'0 0.0
2017-Oct-22 00:26N 45°50' E 018°51'0 0.0
2017-Oct-21 23:56N 45°50' E 018°51'0 0.0
2017-Oct-21 23:29N 45°50' E 018°51'0 0.0
2017-Oct-21 23:00N 45°50' E 018°51'0 0.0
2017-Oct-21 22:28N 45°50' E 018°51'0 0.6
2017-Oct-21 22:00N 45°50' E 018°51'3 5.1
2017-Oct-21 21:30N 45°53' E 018°50'18 0.4
2017-Oct-20 00:51N 46°11' E 018°55'  
Track history (hours):
 
Tides and Currents Weather Stations Pressure Air Temp Water Temp Dewpoint Dewpoint Depression Visibility Wind Speed Wind Dir Waves Ship Positions

Zelenodolsk

Last reported at 2017-Oct-22 13:01 UTC. Time now 2017-Oct-22 13:26 UTC.
Position N 45°30' E 019°06'.

Length 32 m; draft 1.8 m.

Type: Ship. MMSI: 272029800.

Date/timePositionNaut miles runAvg speedWind from/ knotsBaromVisibWave heightAir tempDewpointWater temp
2017-Oct-22 13:01N 45°30' E 019°06'2 4.3
2017-Oct-22 12:31N 45°29' E 019°03'2 4.4
2017-Oct-22 12:01N 45°30' E 019°00'1 1.6
2017-Oct-22 11:31N 45°29' E 018°60'0 0.3
2017-Oct-22 11:00N 45°29' E 018°60'2 5.0
2017-Oct-22 10:31N 45°29' E 019°03'3 5.7
2017-Oct-22 10:01N 45°31' E 019°06'3 6.4
2017-Oct-22 09:31N 45°33' E 019°02'3 5.2
2017-Oct-22 09:01N 45°32' E 018°58'3 6.5
2017-Oct-22 08:31N 45°33' E 018°54'3 5.6
2017-Oct-22 08:01N 45°36' E 018°54'3 5.9
2017-Oct-22 07:31N 45°39' E 018°57'2 4.6
2017-Oct-22 07:01N 45°41' E 018°56'1 1.1
2017-Oct-22 06:31N 45°42' E 018°55'0 0.3
2017-Oct-22 06:01N 45°42' E 018°55'0 0.2
2017-Oct-22 05:31N 45°42' E 018°55'2 4.9
2017-Oct-22 05:01N 45°44' E 018°54'3 6.3
2017-Oct-22 04:31N 45°47' E 018°53'3 5.3
2017-Oct-22 04:00N 45°49' E 018°51'1 1.4
2017-Oct-22 03:30N 45°50' E 018°51'0 0.0
2017-Oct-22 02:59N 45°50' E 018°51'0 0.0
2017-Oct-22 01:50N 45°50' E 018°51'0 0.0
2017-Oct-22 01:20N 45°50' E 018°51'0 0.0
2017-Oct-22 00:59N 45°50' E 018°51'0 0.0
2017-Oct-22 00:26N 45°50' E 018°51'0 0.0
2017-Oct-21 23:56N 45°50' E 018°51'0 0.0
2017-Oct-21 23:29N 45°50' E 018°51'0 0.0
2017-Oct-21 23:00N 45°50' E 018°51'0 0.0
2017-Oct-21 22:28N 45°50' E 018°51'0 0.6
2017-Oct-21 22:00N 45°50' E 018°51'3 5.1
2017-Oct-21 21:30N 45°53' E 018°50'18 0.4
2017-Oct-20 00:51N 46°11' E 018°55'  

Dump ship's entire track history